Time;durP1;ratioP1;P1;durP2;ratioP2;P2;SDS_P1;SDS_P2;PMS_P1;PMS_P2;Temp;Humidity;BMP_temperature;BMP_pressure;BME280_temperature;BME280_humidity;BME280_pressure;Samples;Min_cycle;Max_cycle;Signal;HPM_P1;HPM_P2
2023/12/20 00:02:23;;;;;;;14.73;6.60;;;;;;;6.85;75.45;99820.93;1704105;84;21039;-65
2023/12/20 00:04:52;;;;;;;14.85;7.22;;;;;;;6.92;73.95;99827.83;1680425;84;21075;-64
2023/12/20 00:07:21;;;;;;;13.32;6.30;;;;;;;6.98;74.51;99827.08;1704120;84;21044;-65
2023/12/20 00:09:49;;;;;;;12.80;6.45;;;;;;;7.02;73.35;99821.58;1704130;84;21111;-64
2023/12/20 00:12:18;;;;;;;10.38;5.72;;;;;;;7.06;72.35;99805.19;1703975;84;21071;-63
2023/12/20 00:14:46;;;;;;;11.68;6.15;;;;;;;7.12;71.73;99809.03;1704002;84;21064;-64
2023/12/20 00:17:14;;;;;;;13.13;7.33;;;;;;;7.16;71.66;99800.32;1703935;84;21063;-65
2023/12/20 00:19:43;;;;;;;12.78;6.78;;;;;;;7.20;71.27;99800.27;1703918;84;21028;-64
2023/12/20 00:22:11;;;;;;;14.70;6.67;;;;;;;7.24;71.08;99801.57;1710286;83;21123;-63
2023/12/20 00:24:40;;;;;;;14.87;7.70;;;;;;;7.27;71.10;99799.83;1714374;83;21054;-64
2023/12/20 00:27:08;;;;;;;14.30;7.40;;;;;;;7.28;71.84;99797.43;1714330;84;21075;-65
2023/12/20 00:29:37;;;;;;;14.60;6.33;;;;;;;7.30;71.29;99783.09;1714294;83;21059;-64
2023/12/20 00:32:07;;;;;;;15.08;6.00;;;;;;;7.30;70.74;99785.81;1714545;83;21122;-63
2023/12/20 00:34:35;;;;;;;10.58;5.85;;;;;;;7.34;71.02;99771.81;1714579;83;21503;-64
2023/12/20 00:37:04;;;;;;;10.68;5.70;;;;;;;7.34;70.45;99765.84;1714528;83;21031;-64
2023/12/20 00:39:33;;;;;;;12.05;5.78;;;;;;;7.35;69.54;99762.59;1714288;84;21091;-64
2023/12/20 00:42:01;;;;;;;9.48;5.50;;;;;;;7.37;69.09;99748.27;1714552;84;21075;-63
2023/12/20 00:44:30;;;;;;;9.75;5.37;;;;;;;7.39;69.62;99744.30;1714447;84;21035;-66
2023/12/20 00:46:59;;;;;;;11.63;5.87;;;;;;;7.39;69.41;99727.11;1714398;84;21479;-63
2023/12/20 00:49:27;;;;;;;12.65;6.95;;;;;;;7.37;69.66;99727.82;1714334;84;21074;-64
2023/12/20 00:51:56;;;;;;;13.90;6.42;;;;;;;7.34;69.73;99725.48;1714475;84;21551;-63
2023/12/20 00:54:24;;;;;;;8.85;5.62;;;;;;;7.30;69.36;99728.59;1714258;83;21077;-64
2023/12/20 00:56:53;;;;;;;9.25;5.37;;;;;;;7.29;69.77;99724.19;1714544;83;21075;-63
2023/12/20 00:59:21;;;;;;;7.85;4.92;;;;;;;7.27;69.82;99717.23;1714501;83;21075;-64
2023/12/20 01:01:51;;;;;;;9.98;5.78;;;;;;;7.27;69.98;99726.78;1714619;84;21047;-63
2023/12/20 01:04:20;;;;;;;8.28;4.72;;;;;;;7.27;69.96;99724.89;1714552;84;21035;-64
2023/12/20 01:06:48;;;;;;;7.53;4.78;;;;;;;7.28;70.11;99716.20;1714424;83;21114;-64
2023/12/20 01:09:18;;;;;;;6.47;4.03;;;;;;;7.30;69.29;99715.48;1714302;84;21541;-64
2023/12/20 01:11:46;;;;;;;10.43;4.55;;;;;;;7.33;68.87;99710.17;1714622;84;21064;-64
2023/12/20 01:14:15;;;;;;;8.08;4.55;;;;;;;7.36;68.79;99716.08;1714563;83;21075;-64
2023/12/20 01:16:43;;;;;;;9.40;4.50;;;;;;;7.39;69.17;99712.13;1714615;84;21063;-64
2023/12/20 01:19:13;;;;;;;8.28;4.70;;;;;;;7.40;69.34;99709.72;1714518;84;21127;-64
2023/12/20 01:21:42;;;;;;;8.48;4.22;;;;;;;7.41;69.13;99710.05;1711268;83;21086;-64
2023/12/20 01:24:11;;;;;;;8.00;4.33;;;;;;;7.43;69.12;99699.80;1704120;84;21063;-64
2023/12/20 01:26:39;;;;;;;8.03;4.30;;;;;;;7.44;69.21;99696.03;1704154;84;21103;-65
2023/12/20 01:29:08;;;;;;;8.45;4.42;;;;;;;7.46;69.07;99698.05;1703955;84;21004;-64
2023/12/20 01:31:36;;;;;;;7.87;4.25;;;;;;;7.46;68.47;99699.41;1704026;84;21052;-63
2023/12/20 01:34:05;;;;;;;6.28;3.80;;;;;;;7.48;68.33;99697.33;1703910;84;21545;-63
2023/12/20 01:36:34;;;;;;;7.45;4.10;;;;;;;7.48;67.81;99694.08;1704034;84;20992;-64
2023/12/20 01:39:04;;;;;;;7.35;4.03;;;;;;;7.51;68.04;99690.13;1704144;84;21059;-65
2023/12/20 01:41:34;;;;;;;8.60;4.20;;;;;;;7.54;67.99;99682.91;1702744;84;21044;-64
2023/12/20 01:44:02;;;;;;;7.83;4.37;;;;;;;7.55;67.30;99675.06;1704132;84;21020;-64
2023/12/20 01:46:31;;;;;;;12.07;5.60;;;;;;;7.59;67.04;99673.63;1703950;84;21428;-62
2023/12/20 01:48:59;;;;;;;7.10;4.15;;;;;;;7.61;66.95;99681.09;1703972;84;21027;-63
2023/12/20 01:51:28;;;;;;;8.13;4.25;;;;;;;7.62;66.78;99670.52;1704148;84;21032;-64
2023/12/20 01:53:57;;;;;;;8.03;4.30;;;;;;;7.64;66.54;99673.36;1703927;84;21472;-63
2023/12/20 01:56:27;;;;;;;10.23;4.03;;;;;;;7.68;66.25;99671.09;1704148;84;21035;-64
2023/12/20 01:58:55;;;;;;;8.40;4.58;;;;;;;7.71;66.27;99657.58;1703869;84;21088;-62
2023/12/20 02:01:24;;;;;;;9.35;4.35;;;;;;;7.73;65.74;99652.25;1704127;84;21020;-63
2023/12/20 02:03:53;;;;;;;7.62;3.98;;;;;;;7.76;65.03;99655.10;1704081;84;21035;-63
2023/12/20 02:06:22;;;;;;;7.62;4.28;;;;;;;7.78;63.94;99642.95;1704137;84;21028;-65
2023/12/20 02:08:51;;;;;;;10.85;4.85;;;;;;;7.82;63.80;99644.80;1703917;84;21432;-63
2023/12/20 02:11:19;;;;;;;10.78;5.00;;;;;;;7.84;63.85;99642.72;1704093;84;21052;-64
2023/12/20 02:13:48;;;;;;;8.28;4.58;;;;;;;7.86;64.10;99642.00;1680357;84;21391;-65
2023/12/20 02:16:16;;;;;;;9.28;4.70;;;;;;;7.85;64.46;99631.61;1680355;84;21167;-64
2023/12/20 02:18:45;;;;;;;9.83;4.65;;;;;;;7.84;64.31;99646.28;1703953;84;21007;-63
2023/12/20 02:21:14;;;;;;;8.68;4.67;;;;;;;7.83;63.72;99637.78;1703934;84;21071;-63
2023/12/20 02:23:42;;;;;;;9.93;4.47;;;;;;;7.81;63.79;99633.05;1696106;83;21062;-62
2023/12/20 02:26:10;;;;;;;11.75;5.33;;;;;;;7.79;63.89;99639.19;1724444;83;21027;-63
2023/12/20 02:28:39;;;;;;;9.40;4.60;;;;;;;7.78;64.21;99641.59;1724649;83;21035;-62
2023/12/20 02:31:07;;;;;;;8.90;4.72;;;;;;;7.76;64.53;99635.50;1724347;83;21114;-64
2023/12/20 02:33:36;;;;;;;8.45;4.80;;;;;;;7.74;64.87;99633.48;1724439;83;21039;-64
2023/12/20 02:36:08;;;;;;;11.20;4.80;;;;;;;7.71;63.78;99628.43;1724420;83;21050;-63
2023/12/20 02:38:37;;;;;;;11.00;4.72;;;;;;;7.70;64.67;99629.47;1724349;83;21039;-63
2023/12/20 02:41:05;;;;;;;9.18;4.42;;;;;;;7.70;64.84;99625.91;1724725;83;21106;-63
2023/12/20 02:43:34;;;;;;;9.13;4.58;;;;;;;7.67;64.69;99629.03;1724461;83;21047;-62
2023/12/20 02:46:03;;;;;;;9.93;5.62;;;;;;;7.63;64.69;99638.13;1698316;83;21146;-64
2023/12/20 02:48:32;;;;;;;10.65;5.10;;;;;;;7.61;64.60;99629.30;1724608;83;21058;-64
2023/12/20 02:51:00;;;;;;;9.15;4.90;;;;;;;7.57;64.72;99617.10;1724535;83;21035;-62
2023/12/20 02:53:30;;;;;;;9.05;4.62;;;;;;;7.55;64.44;99619.19;1724409;83;21039;-63
2023/12/20 02:55:58;;;;;;;8.65;4.33;;;;;;;7.53;64.17;99607.63;1724408;82;21066;-62
2023/12/20 02:58:27;;;;;;;8.45;4.95;;;;;;;7.54;64.52;99622.95;1698474;83;21145;-63
2023/12/20 03:00:56;;;;;;;9.10;4.50;;;;;;;7.50;64.38;99608.03;1724608;82;21027;-62
2023/12/20 03:03:25;;;;;;;9.63;4.95;;;;;;;7.48;64.57;99606.86;1724588;83;20999;-62
2023/12/20 03:05:53;;;;;;;9.65;4.72;;;;;;;7.47;64.41;99608.42;1724296;82;21071;-64
2023/12/20 03:08:22;;;;;;;8.83;4.45;;;;;;;7.44;64.34;99611.55;1724320;83;21442;-62
2023/12/20 03:10:51;;;;;;;9.23;4.92;;;;;;;7.41;64.44;99605.97;1724406;83;21466;-62
2023/12/20 03:13:19;;;;;;;11.08;5.28;;;;;;;7.36;64.45;99597.53;1724408;82;21078;-63
2023/12/20 03:15:48;;;;;;;11.20;5.15;;;;;;;7.33;64.63;99591.64;1724357;83;21050;-63
2023/12/20 03:18:18;;;;;;;11.38;5.50;;;;;;;7.30;64.84;99599.69;1724417;82;21059;-62
2023/12/20 03:20:49;;;;;;;11.93;5.22;;;;;;;7.26;65.01;99599.23;1724506;83;21289;-63
2023/12/20 03:23:17;;;;;;;9.90;4.60;;;;;;;7.23;65.40;99598.27;1719645;83;21099;-63
2023/12/20 03:25:46;;;;;;;10.05;5.15;;;;;;;7.19;64.88;99592.88;1714339;84;21114;-60
2023/12/20 03:28:16;;;;;;;12.50;6.08;;;;;;;7.17;65.47;99594.12;1714548;83;21114;-63
2023/12/20 03:30:44;;;;;;;14.45;5.50;;;;;;;7.15;65.72;99597.04;1714373;84;21572;-63
2023/12/20 03:33:13;;;;;;;10.43;4.83;;;;;;;7.13;65.56;99598.24;1714479;84;21074;-62
2023/12/20 03:35:42;;;;;;;12.60;5.53;;;;;;;7.10;65.55;99592.66;1714548;84;21007;-63
2023/12/20 03:38:10;;;;;;;11.93;5.30;;;;;;;7.08;65.37;99598.83;1714383;84;21102;-62
2023/12/20 03:40:39;;;;;;;10.38;5.42;;;;;;;7.07;65.69;99618.94;1714571;84;20999;-63
2023/12/20 03:43:08;;;;;;;10.25;4.90;;;;;;;7.05;65.99;99610.11;1714543;83;21055;-64
2023/12/20 03:45:36;;;;;;;11.33;5.67;;;;;;;7.04;65.58;99613.88;1714561;83;21016;-64
2023/12/20 03:48:06;;;;;;;9.35;5.35;;;;;;;7.03;65.58;99610.83;1714509;84;21130;-62
2023/12/20 03:50:35;;;;;;;11.88;5.60;;;;;;;7.02;65.94;99617.31;1714375;84;21047;-63
2023/12/20 03:53:04;;;;;;;11.20;5.05;;;;;;;7.00;65.92;99616.66;1714610;83;21007;-64
2023/12/20 03:55:32;;;;;;;12.00;5.17;;;;;;;6.97;65.88;99612.96;1714498;83;21043;-64
2023/12/20 03:58:01;;;;;;;11.68;5.72;;;;;;;6.96;65.91;99618.09;1714357;83;21062;-63
2023/12/20 04:00:30;;;;;;;11.18;5.47;;;;;;;6.93;65.91;99617.11;1714395;84;21004;-63
2023/12/20 04:02:59;;;;;;;18.40;6.33;;;;;;;6.89;66.33;99609.00;1714381;84;21151;-63
2023/12/20 04:05:27;;;;;;;13.83;5.55;;;;;;;6.89;66.34;99615.81;1714418;84;21067;-63
2023/12/20 04:07:56;;;;;;;12.35;6.00;;;;;;;6.85;66.49;99614.51;1714516;84;21051;-64
2023/12/20 04:10:25;;;;;;;11.53;6.03;;;;;;;6.83;66.82;99611.14;1696396;84;21023;-63
2023/12/20 04:12:54;;;;;;;14.98;6.00;;;;;;;6.79;66.29;99604.39;1714575;84;21031;-63
2023/12/20 04:15:23;;;;;;;9.95;5.37;;;;;;;6.75;66.35;99594.92;1714402;83;21051;-63
2023/12/20 04:17:52;;;;;;;11.55;6.37;;;;;;;6.72;66.61;99604.84;1714240;83;21078;-64
2023/12/20 04:20:22;;;;;;;11.85;5.97;;;;;;;6.69;66.97;99595.18;1714372;84;21087;-63
2023/12/20 04:22:50;;;;;;;11.70;5.47;;;;;;;6.65;66.76;99606.97;1712975;82;21202;-63
2023/12/20 04:25:19;;;;;;;12.37;6.58;;;;;;;6.62;66.45;99610.07;1704064;83;21004;-62
2023/12/20 04:27:48;;;;;;;12.05;5.80;;;;;;;6.59;66.36;99609.09;1703870;84;21075;-63
2023/12/20 04:30:17;;;;;;;9.98;5.20;;;;;;;6.57;66.32;99618.48;1704019;84;21052;-62
2023/12/20 04:32:46;;;;;;;9.90;4.85;;;;;;;6.56;66.41;99606.76;1704063;84;21604;-63
2023/12/20 04:35:14;;;;;;;8.95;5.20;;;;;;;6.55;66.35;99611.87;1703859;84;21051;-63
2023/12/20 04:37:43;;;;;;;12.33;5.62;;;;;;;6.53;65.84;99618.02;1703923;84;21548;-63
2023/12/20 04:40:12;;;;;;;13.80;5.58;;;;;;;6.49;66.01;99620.77;1680321;84;21627;-63
2023/12/20 04:42:40;;;;;;;11.73;5.42;;;;;;;6.47;66.16;99606.52;1704143;84;21063;-61
2023/12/20 04:45:12;;;;;;;11.60;6.12;;;;;;;6.48;66.35;99615.52;1703987;84;21055;-62
2023/12/20 04:47:41;;;;;;;11.73;5.90;;;;;;;6.46;66.33;99605.34;1704078;84;21007;-64
2023/12/20 04:50:11;;;;;;;11.25;6.45;;;;;;;6.44;66.35;99606.89;1680747;84;21476;-63
2023/12/20 04:52:40;;;;;;;14.23;6.65;;;;;;;6.43;66.61;99603.00;1704159;84;21087;-61
2023/12/20 04:55:09;;;;;;;11.28;5.45;;;;;;;6.43;66.61;99616.61;1703982;84;21075;-63
2023/12/20 04:57:37;;;;;;;16.12;5.45;;;;;;;6.41;66.86;99600.98;1703962;84;21330;-62
2023/12/20 05:00:08;;;;;;;9.13;5.30;;;;;;;6.41;67.14;99614.08;1704094;84;21075;-64
2023/12/20 05:02:38;;;;;;;11.20;6.00;;;;;;;6.41;67.09;99615.95;1703988;84;21494;-63
2023/12/20 05:05:08;;;;;;;14.63;6.37;;;;;;;6.37;66.48;99615.48;1703904;84;21064;-63
2023/12/20 05:07:36;;;;;;;14.60;6.50;;;;;;;6.37;66.81;99622.29;1703914;84;21517;-63
2023/12/20 05:10:08;;;;;;;12.90;6.67;;;;;;;6.35;66.85;99625.72;1704035;84;21081;-64
2023/12/20 05:12:37;;;;;;;13.83;6.10;;;;;;;6.32;67.22;99621.50;1704166;84;21247;-63
2023/12/20 05:15:07;;;;;;;11.63;5.95;;;;;;;6.30;66.96;99617.28;1680480;84;21071;-64
2023/12/20 05:17:36;;;;;;;15.32;6.00;;;;;;;6.28;67.10;99611.19;1704082;84;21044;-63
2023/12/20 05:20:07;;;;;;;23.90;6.30;;;;;;;6.28;67.02;99616.62;1703936;84;21067;-63
2023/12/20 05:22:36;;;;;;;12.60;6.00;;;;;;;6.27;67.15;99613.58;1704094;84;21075;-64
2023/12/20 05:25:06;;;;;;;18.10;6.67;;;;;;;6.27;66.57;99620.37;1703884;83;21052;-63
2023/12/20 05:27:34;;;;;;;18.05;7.65;;;;;;;6.26;67.12;99617.33;1704044;84;21071;-64
2023/12/20 05:30:04;;;;;;;16.75;5.97;;;;;;;6.26;67.32;99615.97;1703848;84;21056;-61
2023/12/20 05:32:33;;;;;;;11.75;5.65;;;;;;;6.27;67.43;99610.86;1704259;84;21468;-64
2023/12/20 05:35:03;;;;;;;12.58;6.05;;;;;;;6.26;67.46;99611.38;1704123;84;21105;-63
2023/12/20 05:37:32;;;;;;;11.83;6.05;;;;;;;6.24;67.34;99607.16;1703846;84;21449;-66
2023/12/20 05:40:01;;;;;;;23.02;8.75;;;;;;;6.24;67.29;99605.80;1704053;84;21060;-64
2023/12/20 05:42:29;;;;;;;12.53;5.87;;;;;;;6.24;67.13;99609.36;1703581;84;21048;-64
2023/12/20 05:44:58;;;;;;;15.88;6.90;;;;;;;6.24;67.31;99605.80;1704124;84;21059;-63
2023/12/20 05:47:27;;;;;;;17.98;7.35;;;;;;;6.22;67.10;99609.22;1703891;84;21032;-63
2023/12/20 05:49:56;;;;;;;12.63;6.28;;;;;;;6.21;67.13;99615.18;1703844;84;21475;-64
2023/12/20 05:52:24;;;;;;;19.10;8.23;;;;;;;6.18;67.14;99612.84;1703818;84;21107;-62
2023/12/20 05:54:53;;;;;;;19.02;8.10;;;;;;;6.18;67.38;99616.08;1703904;84;21043;-64
2023/12/20 05:57:23;;;;;;;21.42;7.30;;;;;;;6.19;67.59;99617.77;1703950;84;21024;-62
2023/12/20 05:59:52;;;;;;;15.75;6.40;;;;;;;6.19;67.46;99616.40;1703984;84;21036;-64
2023/12/20 06:02:20;;;;;;;14.75;7.40;;;;;;;6.19;67.26;99610.96;1658378;84;21048;-63
2023/12/20 06:04:50;;;;;;;18.12;7.50;;;;;;;6.20;67.18;99614.01;1703373;84;21483;-65
2023/12/20 06:07:18;;;;;;;19.95;7.50;;;;;;;6.21;67.48;99614.34;1680503;84;21087;-63
2023/12/20 06:09:47;;;;;;;13.88;6.92;;;;;;;6.23;67.29;99612.27;1704098;84;21067;-64
2023/12/20 06:12:15;;;;;;;16.17;7.30;;;;;;;6.24;66.88;99619.40;1703975;84;20997;-64
2023/12/20 06:14:44;;;;;;;14.33;6.83;;;;;;;6.25;66.82;99614.28;1704148;84;21067;-64
2023/12/20 06:17:12;;;;;;;17.27;7.90;;;;;;;6.26;66.88;99611.89;1704164;84;21032;-64
2023/12/20 06:19:44;;;;;;;19.95;7.90;;;;;;;6.28;67.02;99608.47;1704077;84;21035;-64
2023/12/20 06:22:11;;;;;;;18.23;7.25;;;;;;;6.30;67.12;99613.20;1704097;84;21067;-63
2023/12/20 06:24:40;;;;;;;19.40;8.00;;;;;;;6.32;66.90;99607.05;1704150;83;21071;-64
2023/12/20 06:27:09;;;;;;;22.13;7.53;;;;;;;6.33;67.08;99606.02;1680638;84;21051;-63
2023/12/20 06:29:40;;;;;;;16.10;8.10;;;;;;;6.33;66.96;99614.19;1703994;84;21545;-62
2023/12/20 06:32:10;;;;;;;45.28;9.15;;;;;;;6.33;66.48;99604.14;1704198;84;21048;-65
2023/12/20 06:34:38;;;;;;;21.93;9.15;;;;;;;6.34;66.35;99602.27;1703627;84;21087;-64
2023/12/20 06:37:07;;;;;;;19.27;8.18;;;;;;;6.37;66.63;99605.97;1704074;84;21052;-64
2023/12/20 06:39:36;;;;;;;17.57;8.30;;;;;;;6.40;66.56;99606.95;1703849;84;21471;-62
2023/12/20 06:42:05;;;;;;;46.30;27.75;;;;;;;6.43;66.66;99597.56;1703929;84;21048;-65
2023/12/20 06:44:34;;;;;;;21.27;11.28;;;;;;;6.45;66.73;99600.41;1704169;84;21028;-63
2023/12/20 06:47:03;;;;;;;21.55;12.25;;;;;;;6.51;66.55;99602.92;1704118;84;21040;-64
2023/12/20 06:49:33;;;;;;;26.02;12.18;;;;;;;6.54;66.28;99600.66;1704115;84;21047;-65
2023/12/20 06:52:03;;;;;;;20.92;9.95;;;;;;;6.58;66.11;99599.77;1680543;84;21060;-66
2023/12/20 06:54:34;;;;;;;22.40;9.40;;;;;;;6.61;65.87;99602.10;1703960;84;21083;-65
2023/12/20 06:57:04;;;;;;;24.75;8.98;;;;;;;6.65;66.00;99604.77;1703911;84;21303;-63
2023/12/20 06:59:33;;;;;;;18.87;7.20;;;;;;;6.70;66.23;99610.98;1704106;84;21043;-64
2023/12/20 07:02:02;;;;;;;14.10;6.95;;;;;;;6.74;66.23;99615.86;1703954;84;21075;-65
2023/12/20 07:04:33;;;;;;;15.30;6.92;;;;;;;6.79;66.16;99623.45;1704079;84;21043;-65
2023/12/20 07:07:03;;;;;;;19.65;6.85;;;;;;;6.82;66.34;99613.02;1703763;84;21046;-65
2023/12/20 07:09:33;;;;;;;13.62;6.37;;;;;;;6.85;66.32;99619.44;1704081;84;21071;-66
2023/12/20 07:12:02;;;;;;;19.80;6.40;;;;;;;6.90;66.01;99615.62;1703958;84;21119;-64
2023/12/20 07:14:31;;;;;;;17.10;7.37;;;;;;;6.93;65.87;99619.31;1704028;84;21476;-64
2023/12/20 07:17:00;;;;;;;19.20;6.03;;;;;;;6.94;65.26;99614.19;1704192;84;21079;-64
2023/12/20 07:19:29;;;;;;;21.73;6.47;;;;;;;6.96;65.25;99619.45;1703953;84;21455;-63
2023/12/20 07:21:58;;;;;;;19.27;6.78;;;;;;;6.98;65.56;99613.29;1703933;84;21055;-65
2023/12/20 07:24:27;;;;;;;15.83;5.95;;;;;;;7.02;65.58;99607.78;1707931;83;21517;-65
2023/12/20 07:26:55;;;;;;;11.93;5.78;;;;;;;7.05;65.05;99610.11;1714381;83;21089;-63
2023/12/20 07:29:24;;;;;;;13.75;6.40;;;;;;;7.08;64.64;99611.08;1696506;84;21074;-65
2023/12/20 07:31:54;;;;;;;15.80;6.15;;;;;;;7.13;64.50;99608.62;1714260;84;21463;-65
2023/12/20 07:34:22;;;;;;;23.25;10.43;;;;;;;7.18;64.77;99604.82;1714406;84;21033;-64
2023/12/20 07:36:53;;;;;;;24.72;12.20;;;;;;;7.24;64.54;99594.50;1695618;84;21509;-64
2023/12/20 07:39:22;;;;;;;19.07;9.23;;;;;;;7.30;64.22;99592.88;1714345;84;21483;-62
2023/12/20 07:41:50;;;;;;;20.97;8.63;;;;;;;7.39;64.12;99590.33;1714309;83;21039;-64
2023/12/20 07:44:19;;;;;;;17.42;8.10;;;;;;;7.49;64.44;99589.98;1714448;84;21011;-64
2023/12/20 07:46:48;;;;;;;13.85;6.40;;;;;;;7.59;64.78;99586.40;1714539;84;21119;-64
2023/12/20 07:49:17;;;;;;;16.20;7.67;;;;;;;7.73;64.61;99585.45;1714374;84;21523;-64
2023/12/20 07:51:46;;;;;;;19.75;6.62;;;;;;;7.88;64.69;99578.03;1696292;84;21094;-64
2023/12/20 07:54:14;;;;;;;16.25;6.78;;;;;;;8.03;64.31;99572.97;1696490;84;21090;-63
2023/12/20 07:56:43;;;;;;;14.38;6.95;;;;;;;8.19;64.07;99569.91;1714331;83;20999;-63
2023/12/20 07:59:12;;;;;;;13.88;7.05;;;;;;;8.39;63.64;99569.49;1696320;84;21095;-64
2023/12/20 08:01:42;;;;;;;16.67;6.97;;;;;;;8.57;62.93;99566.23;1712854;83;21509;-65
2023/12/20 08:04:11;;;;;;;16.77;8.20;;;;;;;8.70;63.18;99568.16;1714470;83;21418;-64
2023/12/20 08:06:40;;;;;;;12.00;6.92;;;;;;;8.83;63.30;99577.75;1714338;83;21015;-65
2023/12/20 08:09:10;;;;;;;18.40;7.50;;;;;;;9.06;62.91;99580.10;1714314;83;21071;-64
2023/12/20 08:11:39;;;;;;;11.28;6.03;;;;;;;9.37;62.08;99589.09;1714213;84;21039;-64
2023/12/20 08:14:08;;;;;;;14.00;6.72;;;;;;;9.68;61.89;99589.82;1714536;83;21047;-62
2023/12/20 08:16:36;;;;;;;16.35;5.92;;;;;;;9.93;61.24;99578.55;1714369;84;21459;-65
2023/12/20 08:19:05;;;;;;;16.20;6.20;;;;;;;10.08;60.52;99581.05;1714331;84;21191;-65
2023/12/20 08:21:34;;;;;;;16.15;6.60;;;;;;;10.17;59.47;99575.13;1714315;84;21011;-66
2023/12/20 08:24:06;;;;;;;13.55;7.60;;;;;;;10.18;58.54;99563.64;1713260;83;21028;-65
2023/12/20 08:26:34;;;;;;;11.95;6.25;;;;;;;10.12;58.83;99553.56;1653978;87;21117;-64
2023/12/20 08:29:03;;;;;;;13.90;6.70;;;;;;;10.04;58.70;99543.69;1726982;82;21449;-65
2023/12/20 08:31:32;;;;;;;13.90;6.42;;;;;;;9.95;58.56;99542.77;1726599;83;21106;-68
2023/12/20 08:34:01;;;;;;;12.47;5.72;;;;;;;9.84;58.93;99538.27;1726742;83;21022;-64
2023/12/20 08:36:32;;;;;;;9.35;5.25;;;;;;;9.77;59.61;99545.66;1726674;83;21035;-64
2023/12/20 08:39:00;;;;;;;13.08;5.58;;;;;;;9.71;59.13;99536.90;1726581;82;21062;-65
2023/12/20 08:41:29;;;;;;;11.03;5.25;;;;;;;9.66;59.30;99531.23;1726627;83;21071;-64
2023/12/20 08:43:59;;;;;;;12.07;5.53;;;;;;;9.62;59.45;99529.97;1726688;82;21516;-64
2023/12/20 08:46:27;;;;;;;10.40;5.85;;;;;;;9.60;59.17;99525.24;1726611;83;21082;-64
2023/12/20 08:48:56;;;;;;;12.50;6.00;;;;;;;9.58;59.66;99528.72;1700604;83;21051;-64
2023/12/20 08:51:26;;;;;;;15.93;6.53;;;;;;;9.56;58.72;99539.03;1700591;82;21482;-63
2023/12/20 08:53:55;;;;;;;14.80;8.03;;;;;;;9.49;58.70;99540.92;1726581;82;21090;-63
2023/12/20 08:56:24;;;;;;;14.95;7.15;;;;;;;9.43;59.01;99534.41;1726445;82;21019;-65
2023/12/20 08:58:53;;;;;;;9.63;6.20;;;;;;;9.42;58.92;99531.89;1700388;83;20997;-66
2023/12/20 09:01:24;;;;;;;9.55;5.55;;;;;;;9.34;58.67;99534.31;1659149;85;21030;-63
2023/12/20 09:03:52;;;;;;;8.05;5.20;;;;;;;9.34;62.37;99539.78;1755988;82;21041;-66
2023/12/20 09:06:22;;;;;;;9.55;5.42;;;;;;;9.42;59.70;99532.73;1744951;82;21054;-65
2023/12/20 09:08:52;;;;;;;10.98;5.33;;;;;;;9.40;58.96;99539.47;1733668;82;21033;-66
2023/12/20 09:11:22;;;;;;;11.83;5.80;;;;;;;9.34;58.91;99534.31;1726324;83;21067;-65
2023/12/20 09:13:54;;;;;;;13.30;5.25;;;;;;;9.28;58.06;99539.78;1698960;83;21087;-65
2023/12/20 09:16:22;;;;;;;11.83;5.87;;;;;;;9.21;57.48;99540.62;1739299;82;21011;-68
2023/12/20 09:18:52;;;;;;;12.53;5.70;;;;;;;9.15;57.74;99527.80;1741821;82;21010;-64
2023/12/20 09:21:21;;;;;;;17.17;6.45;;;;;;;9.13;57.09;99527.70;1741999;82;21046;-65
2023/12/20 09:23:50;;;;;;;18.32;7.10;;;;;;;9.09;56.91;99523.14;1742148;82;21026;-66
2023/12/20 09:26:20;;;;;;;20.20;9.20;;;;;;;9.06;56.96;99524.92;1727525;82;21489;-64
2023/12/20 09:28:49;;;;;;;15.55;8.78;;;;;;;9.05;56.83;99513.69;1755744;81;21030;-66
2023/12/20 09:31:40;;;;;;;19.48;8.90;;;;;;;9.02;56.89;99507.80;1755637;82;21046;-65
2023/12/20 09:34:10;;;;;;;17.75;8.63;;;;;;;9.02;56.84;99499.60;1762120;81;21085;-66
2023/12/20 09:36:46;;;;;;;10.95;6.08;;;;;;;9.04;56.69;99499.70;1755160;81;21473;-64
2023/12/20 09:39:10;;;;;;;9.93;5.58;;;;;;;9.09;56.23;99510.84;1730813;81;21062;-65
2023/12/20 09:41:43;;;;;;;16.65;6.12;;;;;;;9.15;55.43;99498.27;1762116;81;21181;-65
2023/12/20 09:44:17;;;;;;;14.80;5.45;;;;;;;9.15;55.27;99481.87;1761950;81;21532;-65
2023/12/20 09:46:49;;;;;;;9.45;4.92;;;;;;;9.15;55.75;99483.23;1762241;81;21026;-64
2023/12/20 09:49:20;;;;;;;13.55;6.75;;;;;;;9.16;54.79;99489.86;1762296;81;21054;-66
2023/12/20 09:51:54;;;;;;;12.98;6.10;;;;;;;9.18;54.52;99485.55;1761937;81;21039;-64
2023/12/20 09:54:24;;;;;;;13.95;5.87;;;;;;;9.20;54.35;99487.54;1762422;81;21455;-65
2023/12/20 09:56:53;;;;;;;10.40;5.78;;;;;;;9.20;53.71;99480.18;1761979;81;21062;-66
2023/12/20 09:59:21;;;;;;;12.85;6.53;;;;;;;9.21;53.83;99487.33;1762036;81;21458;-65
2023/12/20 10:01:50;;;;;;;11.50;5.37;;;;;;;9.21;54.13;99494.16;1762175;81;21034;-65
2023/12/20 10:04:19;;;;;;;16.42;6.87;;;;;;;9.26;54.22;99495.42;1761901;81;21035;-68
2023/12/20 10:06:50;;;;;;;11.80;5.92;;;;;;;9.28;55.00;99496.89;1763302;81;21059;-67
2023/12/20 10:09:20;;;;;;;10.03;5.15;;;;;;;9.31;54.33;99498.36;1767883;81;21015;-65
2023/12/20 10:11:49;;;;;;;12.80;4.92;;;;;;;9.32;53.80;99489.95;1767631;81;20983;-66
2023/12/20 10:14:18;;;;;;;8.25;4.70;;;;;;;9.33;53.38;99479.33;1767691;81;21046;-65
2023/12/20 10:16:47;;;;;;;9.53;4.72;;;;;;;9.33;51.65;99484.80;1767869;81;21023;-65
2023/12/20 10:19:18;;;;;;;11.80;5.42;;;;;;;9.31;52.10;99493.73;1767987;81;21046;-65
2023/12/20 10:21:47;;;;;;;8.20;4.15;;;;;;;9.30;52.03;99488.48;1767679;81;21043;-64
2023/12/20 10:24:20;;;;;;;7.55;4.45;;;;;;;9.27;51.19;99471.98;1767704;81;21086;-65
2023/12/20 10:27:05;;;;;;;12.13;5.05;;;;;;;9.27;51.55;99473.34;1767803;81;21023;-66
2023/12/20 10:29:37;;;;;;;13.05;6.15;;;;;;;9.28;52.07;99471.45;1748623;81;21039;-66
2023/12/20 10:32:24;;;;;;;14.45;5.42;;;;;;;9.28;52.87;99483.22;1770430;80;21051;-65
2023/12/20 10:34:53;;;;;;;15.98;5.95;;;;;;;9.29;53.10;99479.44;1791765;80;21090;-68
2023/12/20 10:37:23;;;;;;;10.28;5.20;;;;;;;9.29;52.84;99479.97;1763996;80;21153;-66
2023/12/20 10:39:56;;;;;;;9.25;4.65;;;;;;;9.31;53.34;99484.16;1791697;80;21046;-66
2023/12/20 10:42:26;;;;;;;12.70;4.97;;;;;;;9.30;53.20;99470.71;1764133;80;21431;-67
2023/12/20 10:44:56;;;;;;;10.72;4.80;;;;;;;9.29;52.58;99478.07;1760077;80;21059;-67
2023/12/20 10:47:28;;;;;;;10.85;4.25;;;;;;;9.35;54.99;99473.64;1791935;80;21572;-66
2023/12/20 10:49:58;;;;;;;11.05;4.53;;;;;;;9.38;53.93;99471.86;1792230;80;21051;-65
2023/12/20 10:52:27;;;;;;;10.13;4.62;;;;;;;9.38;52.88;99471.86;1791963;80;21477;-66
2023/12/20 10:54:56;;;;;;;16.30;6.50;;;;;;;9.37;52.27;99457.88;1791898;80;21069;-65
2023/12/20 10:57:25;;;;;;;9.85;4.70;;;;;;;9.34;52.65;99461.03;1791883;80;21038;-67
2023/12/20 10:59:54;;;;;;;8.53;4.00;;;;;;;9.32;52.97;99455.78;1792051;80;20995;-65
2023/12/20 11:02:23;;;;;;;9.73;4.12;;;;;;;9.32;52.30;99461.77;1791887;80;21019;-64
2023/12/20 11:04:57;;;;;;;7.40;4.45;;;;;;;9.32;52.87;99450.84;1791861;80;21027;-67
2023/12/20 11:07:37;;;;;;;11.33;5.20;;;;;;;9.33;53.02;99456.62;1789751;80;21023;-64
2023/12/20 11:10:34;;;;;;;9.08;4.30;;;;;;;9.34;53.24;99440.53;1789555;80;21449;-64
2023/12/20 11:13:20;;;;;;;9.87;4.50;;;;;;;9.35;53.51;99443.05;1789190;80;21502;-65
2023/12/20 11:15:50;;;;;;;7.08;4.25;;;;;;;9.35;53.36;99433.48;1789206;80;21102;-66
2023/12/20 11:18:18;;;;;;;10.72;4.17;;;;;;;9.34;53.37;99435.06;1789311;80;21023;-65
2023/12/20 11:20:48;;;;;;;13.35;4.58;;;;;;;9.35;53.42;99435.38;1789233;80;21055;-67
2023/12/20 11:23:16;;;;;;;10.13;4.67;;;;;;;9.35;53.75;99430.75;1734512;80;21106;-65
2023/12/20 11:25:49;;;;;;;8.88;4.78;;;;;;;9.36;54.08;99421.50;1759058;80;21079;-65
2023/12/20 11:28:22;;;;;;;10.95;4.78;;;;;;;9.36;54.06;99417.92;1758824;80;21439;-67
2023/12/20 11:30:59;;;;;;;11.55;4.28;;;;;;;9.36;53.83;99419.28;1789498;80;21039;-66
2023/12/20 11:33:40;;;;;;;7.50;4.12;;;;;;;9.38;53.23;99418.55;1781937;80;21067;-64
2023/12/20 11:36:21;;;;;;;10.72;4.62;;;;;;;9.39;52.93;99418.86;1723186;81;21119;-66
2023/12/20 11:38:57;;;;;;;10.75;4.30;;;;;;;9.41;53.35;99411.28;1745728;81;21042;-65
2023/12/20 11:41:27;;;;;;;7.62;4.08;;;;;;;9.42;52.99;99417.06;1746438;81;21150;-66
2023/12/20 11:43:56;;;;;;;8.00;4.22;;;;;;;9.41;52.58;99408.02;1775375;81;21020;-64
2023/12/20 11:46:25;;;;;;;10.58;5.60;;;;;;;9.42;52.85;99396.03;1775399;81;21023;-64
2023/12/20 11:48:54;;;;;;;6.78;4.03;;;;;;;9.44;53.72;99403.48;1721667;81;21020;-66